createdAt,value
2023-02-12T00:01:24.411Z,105.20
2023-02-12T00:03:53.457Z,98.30
2023-02-12T00:06:23.732Z,98.60
2023-02-12T00:08:53.436Z,107.73
2023-02-12T00:11:23.751Z,92.33
2023-02-12T00:13:52.668Z,94.40
2023-02-12T00:16:24.610Z,99.20
2023-02-12T00:18:54.255Z,100.67
2023-02-12T00:21:25.303Z,106.53
2023-02-12T00:23:53.967Z,103.17
2023-02-12T00:26:23.324Z,95.90
2023-02-12T00:28:53.075Z,100.20
2023-02-12T00:31:24.377Z,104.80
2023-02-12T00:33:53.136Z,102.47
2023-02-12T00:36:25.149Z,106.47
2023-02-12T00:38:54.698Z,99.60
2023-02-12T00:41:24.129Z,110.70
2023-02-12T00:43:52.951Z,95.90
2023-02-12T00:46:21.971Z,98.43
2023-02-12T00:48:50.882Z,106.73
2023-02-12T00:51:23.303Z,102.30
2023-02-12T00:53:51.818Z,88.40
2023-02-12T00:56:20.299Z,92.33
2023-02-12T00:58:50.904Z,99.67
2023-02-12T01:01:19.620Z,87.70
2023-02-12T01:03:47.972Z,94.17
2023-02-12T01:06:16.448Z,99.77
2023-02-12T01:08:46.295Z,83.13
2023-02-12T01:11:14.978Z,88.80
2023-02-12T01:13:43.946Z,92.60
2023-02-12T01:16:17.542Z,105.50
2023-02-12T01:18:46.758Z,95.13
2023-02-12T01:21:17.322Z,103.93
2023-02-12T01:23:49.805Z,87.17
2023-02-12T01:26:19.592Z,93.37
2023-02-12T01:28:51.814Z,101.73
2023-02-12T01:31:23.506Z,106.37
2023-02-12T01:33:54.030Z,104.60
2023-02-12T01:36:22.792Z,101.60
2023-02-12T01:38:53.015Z,96.93
2023-02-12T01:41:24.668Z,87.03
2023-02-12T01:44:16.216Z,95.77
2023-02-12T01:46:46.434Z,89.97
2023-02-12T01:49:20.925Z,95.30
2023-02-12T01:51:56.289Z,92.30
2023-02-12T01:54:27.551Z,97.47
2023-02-12T01:56:56.516Z,94.77
2023-02-12T01:59:25.760Z,90.93
2023-02-12T02:01:55.042Z,105.47
2023-02-12T02:04:28.743Z,105.63
2023-02-12T02:07:00.276Z,98.90
2023-02-12T02:09:31.393Z,88.37
2023-02-12T02:12:17.698Z,79.33
2023-02-12T02:14:47.440Z,87.37
2023-02-12T02:17:48.265Z,92.50
2023-02-12T02:20:50.076Z,79.43
2023-02-12T02:23:45.543Z,87.77
2023-02-12T02:26:50.198Z,97.97
2023-02-12T02:29:43.460Z,95.67
2023-02-12T02:32:16.095Z,97.10
2023-02-12T02:34:51.600Z,98.73
2023-02-12T02:37:26.320Z,95.47
2023-02-12T02:39:59.285Z,94.10
2023-02-12T02:42:35.249Z,86.40
2023-02-12T02:45:10.777Z,103.93
2023-02-12T02:47:45.615Z,93.73
2023-02-12T02:50:18.000Z,100.70
2023-02-12T02:52:51.077Z,92.67
2023-02-12T02:55:22.445Z,94.53
2023-02-12T02:57:56.059Z,94.07
2023-02-12T03:00:30.798Z,94.63
2023-02-12T03:03:07.363Z,102.40
2023-02-12T03:05:41.390Z,96.90
2023-02-12T03:08:13.986Z,96.00
2023-02-12T03:10:46.140Z,95.13
2023-02-12T03:13:20.908Z,96.47
2023-02-12T03:15:55.679Z,94.10
2023-02-12T03:18:31.281Z,92.40
2023-02-12T03:21:03.676Z,98.30
2023-02-12T03:23:39.004Z,97.23
2023-02-12T03:26:12.547Z,96.17
2023-02-12T03:28:41.806Z,98.30
2023-02-12T03:31:19.385Z,98.27
2023-02-12T03:34:00.966Z,92.50
2023-02-12T03:36:47.827Z,89.30
2023-02-12T03:39:26.496Z,107.90
2023-02-12T03:42:02.529Z,93.03
2023-02-12T03:44:45.362Z,100.10
2023-02-12T03:47:22.326Z,100.47
2023-02-12T03:49:58.046Z,93.80
2023-02-12T03:52:26.593Z,91.67
2023-02-12T03:54:55.138Z,82.83
2023-02-12T03:57:30.652Z,99.43
2023-02-12T04:00:00.309Z,93.77
2023-02-12T04:02:29.504Z,103.20
2023-02-12T04:04:59.202Z,92.97
2023-02-12T04:07:27.553Z,101.10
2023-02-12T04:09:55.988Z,97.43
2023-02-12T04:12:41.225Z,91.47
2023-02-12T04:15:23.089Z,97.47
2023-02-12T04:17:58.557Z,102.37
2023-02-12T04:20:42.599Z,91.07
2023-02-12T04:23:23.936Z,98.20
2023-02-12T04:25:59.911Z,95.63
2023-02-12T04:28:38.598Z,96.77
2023-02-12T04:31:13.043Z,88.47
2023-02-12T04:33:48.649Z,90.60
2023-02-12T04:36:24.406Z,99.40
2023-02-12T04:38:57.186Z,99.97
2023-02-12T04:41:26.920Z,99.63
2023-02-12T04:43:55.375Z,96.03
2023-02-12T04:46:23.761Z,89.63
2023-02-12T04:48:55.697Z,99.10
2023-02-12T04:51:25.933Z,97.33
2023-02-12T04:53:54.312Z,99.70
2023-02-12T04:56:22.775Z,108.43
2023-02-12T04:58:51.264Z,95.03
2023-02-12T05:01:19.792Z,87.27
2023-02-12T05:03:48.228Z,84.73
2023-02-12T05:06:16.653Z,94.80
2023-02-12T05:08:46.441Z,80.87
2023-02-12T05:11:14.822Z,87.70
2023-02-12T05:13:43.223Z,94.77
2023-02-12T05:16:11.541Z,92.87
2023-02-12T05:18:42.035Z,84.57
2023-02-12T05:21:10.440Z,92.40
2023-02-12T05:23:40.101Z,94.90
2023-02-12T05:26:12.500Z,84.73
2023-02-12T05:28:41.495Z,93.53
2023-02-12T05:31:12.303Z,92.23
2023-02-12T05:33:43.625Z,92.90
2023-02-12T05:36:13.798Z,97.10
2023-02-12T05:38:42.383Z,89.90
2023-02-12T05:41:14.721Z,86.77
2023-02-12T05:43:43.178Z,84.67
2023-02-12T05:46:12.449Z,89.73
2023-02-12T05:48:41.606Z,89.90
2023-02-12T05:51:11.856Z,86.13
2023-02-12T05:53:41.476Z,80.17
2023-02-12T05:56:14.265Z,100.83
2023-02-12T05:58:45.082Z,86.47
2023-02-12T06:01:16.273Z,85.93
2023-02-12T06:03:45.034Z,97.10
2023-02-12T06:06:14.084Z,103.40
2023-02-12T06:08:43.573Z,104.43
2023-02-12T06:11:15.485Z,114.60
2023-02-12T06:13:44.162Z,95.40
2023-02-12T06:16:19.435Z,101.10
2023-02-12T06:18:48.197Z,94.20
2023-02-12T06:21:17.383Z,86.73
2023-02-12T06:23:45.783Z,98.70
2023-02-12T06:26:15.622Z,84.77
2023-02-12T06:28:43.998Z,89.63
2023-02-12T06:31:20.542Z,84.57
2023-02-12T06:33:49.505Z,88.60
2023-02-12T06:36:18.716Z,84.50
2023-02-12T06:38:47.692Z,90.57
2023-02-12T06:41:18.052Z,94.13
2023-02-12T06:43:47.024Z,91.37
2023-02-12T06:46:15.960Z,93.10
2023-02-12T06:48:44.456Z,95.50
2023-02-12T06:51:15.606Z,99.40
2023-02-12T06:53:44.637Z,96.93
2023-02-12T06:56:14.274Z,98.03
2023-02-12T06:58:45.611Z,84.00
2023-02-12T07:01:17.808Z,90.13
2023-02-12T07:03:49.173Z,85.80
2023-02-12T07:06:18.236Z,84.83
2023-02-12T07:08:46.808Z,85.93
2023-02-12T07:11:15.601Z,85.60
2023-02-12T07:13:47.799Z,88.27
2023-02-12T07:16:17.838Z,86.37
2023-02-12T07:18:47.153Z,78.47
2023-02-12T07:21:16.508Z,92.13
2023-02-12T07:23:51.316Z,97.53
2023-02-12T07:26:21.204Z,96.90
2023-02-12T07:28:51.613Z,87.93
2023-02-12T07:31:21.517Z,95.93
2023-02-12T07:33:50.760Z,95.80
2023-02-12T07:36:20.912Z,94.77
2023-02-12T07:38:49.541Z,100.63
2023-02-12T07:41:20.000Z,106.73
2023-02-12T07:43:54.398Z,101.57
2023-02-12T07:46:26.468Z,109.07
2023-02-12T07:48:55.316Z,101.67
2023-02-12T07:51:24.136Z,109.80
2023-02-12T07:53:53.000Z,102.60
2023-02-12T07:56:22.748Z,108.90
2023-02-12T07:58:53.947Z,104.70
2023-02-12T08:01:25.530Z,107.00
2023-02-12T08:03:54.616Z,109.20
2023-02-12T08:06:24.833Z,100.40
2023-02-12T08:08:53.961Z,113.37
2023-02-12T08:11:22.847Z,107.47
2023-02-12T08:13:53.364Z,98.77
2023-02-12T08:16:24.047Z,98.17
2023-02-12T08:18:53.537Z,104.37
2023-02-12T08:21:23.685Z,103.07
2023-02-12T08:23:52.521Z,98.20
2023-02-12T08:26:22.944Z,101.10
2023-02-12T08:28:56.108Z,93.73
2023-02-12T08:31:26.304Z,108.70
2023-02-12T08:33:56.049Z,98.43
2023-02-12T08:36:26.922Z,98.23
2023-02-12T08:38:56.087Z,88.73
2023-02-12T08:41:26.468Z,92.60
2023-02-12T08:44:01.897Z,97.63
2023-02-12T08:46:32.565Z,87.80
2023-02-12T08:49:02.609Z,93.10
2023-02-12T08:51:33.293Z,89.60
2023-02-12T08:54:04.329Z,98.30
2023-02-12T08:56:34.917Z,90.77
2023-02-12T08:59:07.014Z,89.60
2023-02-12T09:01:38.593Z,96.73
2023-02-12T09:04:08.033Z,94.00
2023-02-12T09:06:38.056Z,91.27
2023-02-12T09:09:07.357Z,83.43
2023-02-12T09:11:37.849Z,79.13
2023-02-12T09:14:09.674Z,79.50
2023-02-12T09:16:39.757Z,76.30
2023-02-12T09:19:09.160Z,73.13
2023-02-12T09:21:37.770Z,76.70
2023-02-12T09:24:06.429Z,81.87
2023-02-12T09:26:35.027Z,68.80
2023-02-12T09:29:05.499Z,71.93
2023-02-12T09:31:35.476Z,77.20
2023-02-12T09:34:06.196Z,71.27
2023-02-12T09:36:36.197Z,69.43
2023-02-12T09:39:05.717Z,69.20
2023-02-12T09:41:57.919Z,64.33
2023-02-12T09:44:33.792Z,65.37
2023-02-12T09:47:09.792Z,63.57
2023-02-12T09:50:01.864Z,61.27
2023-02-12T09:52:31.591Z,68.50
2023-02-12T09:55:01.034Z,62.70
2023-02-12T09:57:34.082Z,58.17
2023-02-12T10:00:06.918Z,58.20
2023-02-12T10:02:39.179Z,62.93
2023-02-12T10:05:15.986Z,63.97
2023-02-12T10:08:01.136Z,59.30
2023-02-12T10:10:47.803Z,65.33
2023-02-12T10:13:28.551Z,61.73
2023-02-12T10:16:06.423Z,61.50
2023-02-12T10:19:05.056Z,68.50
2023-02-12T10:21:45.302Z,63.10
2023-02-12T10:24:33.204Z,62.50
2023-02-12T10:27:06.897Z,60.30
2023-02-12T10:29:39.302Z,63.03
2023-02-12T10:32:14.539Z,62.73
2023-02-12T10:34:45.219Z,59.93
2023-02-12T10:37:22.708Z,60.57
2023-02-12T10:39:56.468Z,56.93
2023-02-12T10:42:35.128Z,66.13
2023-02-12T10:45:03.725Z,63.77
2023-02-12T10:47:32.414Z,58.60
2023-02-12T10:50:04.250Z,62.73
2023-02-12T10:52:40.505Z,54.67
2023-02-12T10:55:29.332Z,60.80
2023-02-12T10:57:58.846Z,52.73
2023-02-12T11:00:31.409Z,58.73
2023-02-12T11:03:21.440Z,51.60
2023-02-12T11:05:51.562Z,53.83
2023-02-12T11:08:33.696Z,51.60
2023-02-12T11:11:12.055Z,55.50
2023-02-12T11:13:48.945Z,55.10
2023-02-12T11:16:29.105Z,55.83
2023-02-12T11:19:03.217Z,63.53
2023-02-12T11:21:34.098Z,56.27
2023-02-12T11:24:29.715Z,57.37
2023-02-12T11:27:22.927Z,55.90
2023-02-12T11:30:14.368Z,48.23
2023-02-12T11:32:43.156Z,53.83
2023-02-12T11:35:18.449Z,50.57
2023-02-12T11:37:49.039Z,50.97
2023-02-12T11:40:21.438Z,48.83
2023-02-12T11:42:54.355Z,51.30
2023-02-12T11:45:26.513Z,50.80
2023-02-12T11:47:55.082Z,50.03
2023-02-12T11:50:29.315Z,52.53
2023-02-12T11:53:02.893Z,48.00
2023-02-12T11:55:34.930Z,52.93
2023-02-12T11:58:06.552Z,46.17
2023-02-12T12:00:39.733Z,49.80
2023-02-12T12:03:16.503Z,46.33
2023-02-12T12:05:49.462Z,49.73
2023-02-12T12:08:26.213Z,46.13
2023-02-12T12:11:00.391Z,43.53
2023-02-12T12:13:35.089Z,53.73
2023-02-12T12:16:29.130Z,44.63
2023-02-12T12:19:19.073Z,42.93
2023-02-12T12:21:54.543Z,40.30
2023-02-12T12:24:32.623Z,40.57
2023-02-12T12:27:14.339Z,37.67
2023-02-12T12:29:51.393Z,41.33
2023-02-12T12:32:22.543Z,40.50
2023-02-12T12:34:51.029Z,42.97
2023-02-12T12:37:29.806Z,42.87
2023-02-12T12:40:11.393Z,40.53
2023-02-12T12:43:03.366Z,45.53
2023-02-12T12:46:11.278Z,43.27
2023-02-12T12:48:54.353Z,41.10
2023-02-12T12:51:38.933Z,43.63
2023-02-12T12:54:19.725Z,42.00
2023-02-12T12:57:03.865Z,38.13
2023-02-12T12:59:50.679Z,40.20
2023-02-12T13:02:57.103Z,40.00
2023-02-12T13:05:48.643Z,40.57
2023-02-12T13:08:34.700Z,43.93
2023-02-12T13:11:15.347Z,41.40
2023-02-12T13:13:48.173Z,45.83
2023-02-12T13:16:22.869Z,44.77
2023-02-12T13:19:00.983Z,41.87
2023-02-12T13:21:44.760Z,41.17
2023-02-12T13:24:25.885Z,37.67
2023-02-12T13:26:58.533Z,43.30
2023-02-12T13:29:34.451Z,45.33
2023-02-12T13:32:07.761Z,44.00
2023-02-12T13:34:38.212Z,42.73
2023-02-12T13:37:13.322Z,44.50
2023-02-12T13:39:45.110Z,43.83
2023-02-12T13:42:27.435Z,45.33
2023-02-12T13:45:09.015Z,37.97
2023-02-12T13:47:48.228Z,43.67
2023-02-12T13:50:31.891Z,42.33
2023-02-12T13:53:08.425Z,43.50
2023-02-12T13:55:42.583Z,44.23
2023-02-12T13:58:49.408Z,43.83
2023-02-12T14:01:41.927Z,38.40
2023-02-12T14:04:31.861Z,41.03
2023-02-12T14:07:03.911Z,40.03
2023-02-12T14:09:40.934Z,40.03
2023-02-12T14:12:13.465Z,38.20
2023-02-12T14:14:46.020Z,39.30
2023-02-12T14:17:43.962Z,38.70
2023-02-12T14:20:29.053Z,40.93
2023-02-12T14:23:05.051Z,36.40
2023-02-12T14:25:43.462Z,43.50
2023-02-12T14:28:24.429Z,43.17
2023-02-12T14:31:42.784Z,39.60
2023-02-12T14:34:50.497Z,44.30
2023-02-12T14:37:38.539Z,46.90
2023-02-12T14:40:44.454Z,39.43
2023-02-12T14:43:30.148Z,39.53
2023-02-12T14:46:19.877Z,45.30
2023-02-12T14:48:54.413Z,48.30
2023-02-12T14:51:33.041Z,38.57
2023-02-12T14:54:05.996Z,39.43
2023-02-12T14:56:47.691Z,40.17
2023-02-12T14:59:21.044Z,39.87
2023-02-12T15:01:51.418Z,41.53
2023-02-12T15:04:26.279Z,42.50
2023-02-12T15:06:58.906Z,49.63
2023-02-12T15:09:35.830Z,41.50
2023-02-12T15:12:08.937Z,44.20
2023-02-12T15:14:41.831Z,45.40
2023-02-12T15:17:12.854Z,39.67
2023-02-12T15:19:45.799Z,40.80
2023-02-12T15:22:24.506Z,40.37
2023-02-12T15:24:54.541Z,42.23
2023-02-12T15:27:23.110Z,40.73
2023-02-12T15:29:54.011Z,39.97
2023-02-12T15:32:26.964Z,41.80
2023-02-12T15:34:57.147Z,40.33
2023-02-12T15:37:28.766Z,43.77
2023-02-12T15:40:01.631Z,47.40
2023-02-12T15:42:33.161Z,48.13
2023-02-12T15:45:19.068Z,46.87
2023-02-12T15:47:56.505Z,44.93
2023-02-12T15:50:26.697Z,48.43
2023-02-12T15:52:56.864Z,43.37
2023-02-12T15:55:29.204Z,44.83
2023-02-12T15:58:00.028Z,42.23
2023-02-12T16:00:33.334Z,42.73
2023-02-12T16:03:02.005Z,43.67
2023-02-12T16:05:32.608Z,44.70
2023-02-12T16:08:03.147Z,45.27
2023-02-12T16:10:33.340Z,42.20
2023-02-12T16:13:02.138Z,41.77
2023-02-12T16:15:32.499Z,42.77
2023-02-12T16:18:04.365Z,44.17
2023-02-12T16:20:33.385Z,41.67
2023-02-12T16:23:07.430Z,43.93
2023-02-12T16:25:39.062Z,44.57
2023-02-12T16:28:09.971Z,46.03
2023-02-12T16:30:42.894Z,42.07
2023-02-12T16:33:33.644Z,48.93
2023-02-12T16:36:03.025Z,42.03
2023-02-12T16:38:42.993Z,47.70
2023-02-12T16:41:25.612Z,45.40
2023-02-12T16:44:32.996Z,45.17
2023-02-12T16:47:02.994Z,45.70
2023-02-12T16:49:32.856Z,44.97
2023-02-12T16:52:27.114Z,44.17
2023-02-12T16:54:55.548Z,42.37
2023-02-12T16:57:25.742Z,46.50
2023-02-12T16:59:54.307Z,47.27
2023-02-12T17:02:23.035Z,46.40
2023-02-12T17:04:51.739Z,44.03
2023-02-12T17:07:23.321Z,44.40
2023-02-12T17:09:52.005Z,52.30
2023-02-12T17:12:20.962Z,41.90
2023-02-12T17:14:51.729Z,52.40
2023-02-12T17:17:20.420Z,55.80
2023-02-12T17:19:49.461Z,50.17
2023-02-12T17:22:22.930Z,52.83
2023-02-12T17:24:53.482Z,52.90
2023-02-12T17:27:22.355Z,57.80
2023-02-12T17:29:52.758Z,44.70
2023-02-12T17:32:21.633Z,46.10
2023-02-12T17:34:50.534Z,45.83
2023-02-12T17:37:19.234Z,49.50
2023-02-12T17:39:48.052Z,51.33
2023-02-12T17:42:16.810Z,49.57
2023-02-12T17:44:45.475Z,47.43
2023-02-12T17:47:15.793Z,45.30
2023-02-12T17:49:45.008Z,50.23
2023-02-12T17:52:14.047Z,46.93
2023-02-12T17:54:45.922Z,47.27
2023-02-12T17:57:15.270Z,46.70
2023-02-12T17:59:44.077Z,50.23
2023-02-12T18:02:13.738Z,52.13
2023-02-12T18:04:43.967Z,48.10
2023-02-12T18:07:13.204Z,45.47
2023-02-12T18:09:42.054Z,44.07
2023-02-12T18:12:10.961Z,47.30
2023-02-12T18:14:39.725Z,45.53
2023-02-12T18:17:08.558Z,47.97
2023-02-12T18:19:37.658Z,46.47
2023-02-12T18:22:08.098Z,43.97
2023-02-12T18:24:41.425Z,42.73
2023-02-12T18:27:10.295Z,49.00
2023-02-12T18:29:39.331Z,46.77
2023-02-12T18:32:08.303Z,45.47
2023-02-12T18:34:37.775Z,46.07
2023-02-12T18:37:08.343Z,48.10
2023-02-12T18:39:37.540Z,49.67
2023-02-12T18:42:06.476Z,48.20
2023-02-12T18:44:36.143Z,48.90
2023-02-12T18:47:04.959Z,51.33
2023-02-12T18:49:33.736Z,45.57
2023-02-12T18:52:02.613Z,49.97
2023-02-12T18:54:33.185Z,50.30
2023-02-12T18:57:01.933Z,49.70
2023-02-12T18:59:30.486Z,52.47
2023-02-12T19:01:59.137Z,51.43
2023-02-12T19:04:30.237Z,62.00
2023-02-12T19:06:59.395Z,55.90
2023-02-12T19:09:28.862Z,51.87
2023-02-12T19:12:00.680Z,52.57
2023-02-12T19:14:29.964Z,48.30
2023-02-12T19:16:58.623Z,52.97
2023-02-12T19:19:28.231Z,59.57
2023-02-12T19:21:57.008Z,52.80
2023-02-12T19:24:28.670Z,48.70
2023-02-12T19:27:05.458Z,53.53
2023-02-12T19:29:34.661Z,53.30
2023-02-12T19:32:03.843Z,54.63
2023-02-12T19:34:32.314Z,61.60
2023-02-12T19:37:00.915Z,51.27
2023-02-12T19:39:29.629Z,49.97
2023-02-12T19:41:58.226Z,49.27
2023-02-12T19:44:28.318Z,47.50
2023-02-12T19:46:57.729Z,49.90
2023-02-12T19:49:29.793Z,52.10
2023-02-12T19:51:58.564Z,51.50
2023-02-12T19:54:27.324Z,52.50
2023-02-12T19:56:56.550Z,47.10
2023-02-12T19:59:28.240Z,48.17
2023-02-12T20:01:57.454Z,57.20
2023-02-12T20:04:26.947Z,48.87
2023-02-12T20:06:56.027Z,54.00
2023-02-12T20:09:25.073Z,52.27
2023-02-12T20:11:54.224Z,56.23
2023-02-12T20:14:23.545Z,55.30
2023-02-12T20:16:56.247Z,59.20
2023-02-12T20:19:27.220Z,58.13
2023-02-12T20:21:57.522Z,49.87
2023-02-12T20:24:27.738Z,51.03
2023-02-12T20:26:57.264Z,52.50
2023-02-12T20:29:26.597Z,51.23
2023-02-12T20:31:57.147Z,50.57
2023-02-12T20:34:26.103Z,48.03
2023-02-12T20:36:55.182Z,58.70
2023-02-12T20:39:24.608Z,58.13
2023-02-12T20:41:53.429Z,58.37
2023-02-12T20:44:23.219Z,55.47
2023-02-12T20:46:56.491Z,52.40
2023-02-12T20:49:27.295Z,54.53
2023-02-12T20:51:56.039Z,58.83
2023-02-12T20:54:27.312Z,53.77
2023-02-12T20:56:55.855Z,57.43
2023-02-12T20:59:24.489Z,58.70
2023-02-12T21:01:53.089Z,59.57
2023-02-12T21:04:21.611Z,53.47
2023-02-12T21:06:51.770Z,53.13
2023-02-12T21:09:20.474Z,54.63
2023-02-12T21:11:49.658Z,55.70
2023-02-12T21:14:22.506Z,54.37
2023-02-12T21:16:52.699Z,55.77
2023-02-12T21:19:21.550Z,60.27
2023-02-12T21:21:52.238Z,56.33
2023-02-12T21:24:22.696Z,58.60
2023-02-12T21:26:51.854Z,52.57
2023-02-12T21:29:21.205Z,56.97
2023-02-12T21:31:51.786Z,57.73
2023-02-12T21:34:22.310Z,59.03
2023-02-12T21:36:55.364Z,59.80
2023-02-12T21:39:26.482Z,61.00
2023-02-12T21:41:56.794Z,59.57
2023-02-12T21:44:26.695Z,65.87
2023-02-12T21:46:55.472Z,65.87
2023-02-12T21:49:28.396Z,59.10
2023-02-12T21:52:02.431Z,62.47
2023-02-12T21:54:31.654Z,60.00
2023-02-12T21:57:00.855Z,58.60
2023-02-12T21:59:32.354Z,64.73
2023-02-12T22:02:02.619Z,63.33
2023-02-12T22:04:31.357Z,67.13
2023-02-12T22:07:03.734Z,61.53
2023-02-12T22:09:32.153Z,62.87
2023-02-12T22:12:00.718Z,70.03
2023-02-12T22:14:29.412Z,62.60
2023-02-12T22:16:57.878Z,62.80
2023-02-12T22:19:26.412Z,62.47
2023-02-12T22:21:54.815Z,63.93
2023-02-12T22:24:24.726Z,71.67
2023-02-12T22:26:53.143Z,67.33
2023-02-12T22:29:22.934Z,61.80
2023-02-12T22:31:52.320Z,62.37
2023-02-12T22:34:20.976Z,64.57
2023-02-12T22:36:49.558Z,67.83
2023-02-12T22:39:18.710Z,72.87
2023-02-12T22:41:48.644Z,73.00
2023-02-12T22:44:20.049Z,74.17
2023-02-12T22:46:50.114Z,66.40
2023-02-12T22:49:18.955Z,69.60
2023-02-12T22:51:47.712Z,63.03
2023-02-12T22:54:19.534Z,66.13
2023-02-12T22:56:52.201Z,58.40
2023-02-12T22:59:20.655Z,63.10
2023-02-12T23:01:48.954Z,61.97
2023-02-12T23:04:18.687Z,57.57
2023-02-12T23:06:47.700Z,61.30
2023-02-12T23:09:19.233Z,61.57
2023-02-12T23:11:49.686Z,68.00
2023-02-12T23:14:18.586Z,59.70
2023-02-12T23:16:48.128Z,67.17
2023-02-12T23:19:17.075Z,60.50
2023-02-12T23:21:45.741Z,58.13
2023-02-12T23:24:15.400Z,57.17
2023-02-12T23:26:44.359Z,57.10
2023-02-12T23:29:14.326Z,60.07
2023-02-12T23:31:42.778Z,59.97
2023-02-12T23:34:11.256Z,65.13
2023-02-12T23:36:39.584Z,62.70
2023-02-12T23:39:09.582Z,64.87
2023-02-12T23:41:38.057Z,57.40
2023-02-12T23:44:06.549Z,67.03
2023-02-12T23:46:36.505Z,66.03
2023-02-12T23:49:04.916Z,60.27
2023-02-12T23:51:33.609Z,65.63
2023-02-12T23:54:02.032Z,62.27
2023-02-12T23:56:30.348Z,58.53
2023-02-12T23:58:58.831Z,71.20
